sensor_id;sensor_type;location;lat;lon;timestamp;temperature;humidity
5246;DHT22;54412;51.206;6.888;2022-08-25T00:01:48;26.20;73.60
5246;DHT22;54412;51.206;6.888;2022-08-25T00:04:17;26.10;74.00
5246;DHT22;54412;51.206;6.888;2022-08-25T00:06:45;26.20;74.90
5246;DHT22;54412;51.206;6.888;2022-08-25T00:09:13;26.20;74.80
5246;DHT22;54412;51.206;6.888;2022-08-25T00:11:41;26.20;74.90
5246;DHT22;54412;51.206;6.888;2022-08-25T00:14:12;26.10;75.10
5246;DHT22;54412;51.206;6.888;2022-08-25T00:16:44;26.10;75.80
5246;DHT22;54412;51.206;6.888;2022-08-25T00:19:15;26.10;75.50
5246;DHT22;54412;51.206;6.888;2022-08-25T00:21:44;26.10;77.40
5246;DHT22;54412;51.206;6.888;2022-08-25T00:24:11;26.10;78.20
5246;DHT22;54412;51.206;6.888;2022-08-25T00:26:41;26.00;79.10
5246;DHT22;54412;51.206;6.888;2022-08-25T00:29:09;25.90;79.60
5246;DHT22;54412;51.206;6.888;2022-08-25T00:31:36;25.80;80.30
5246;DHT22;54412;51.206;6.888;2022-08-25T00:34:03;25.80;81.00
5246;DHT22;54412;51.206;6.888;2022-08-25T00:36:32;25.70;80.80
5246;DHT22;54412;51.206;6.888;2022-08-25T00:38:58;25.60;81.40
5246;DHT22;54412;51.206;6.888;2022-08-25T00:41:24;25.60;81.80
5246;DHT22;54412;51.206;6.888;2022-08-25T00:43:56;25.50;82.00
5246;DHT22;54412;51.206;6.888;2022-08-25T00:46:35;25.40;82.50
5246;DHT22;54412;51.206;6.888;2022-08-25T00:49:12;25.40;83.00
5246;DHT22;54412;51.206;6.888;2022-08-25T00:54:35;25.20;84.00
5246;DHT22;54412;51.206;6.888;2022-08-25T00:57:08;25.20;84.40
5246;DHT22;54412;51.206;6.888;2022-08-25T00:59:37;25.10;84.60
5246;DHT22;54412;51.206;6.888;2022-08-25T01:02:05;25.10;84.80
5246;DHT22;54412;51.206;6.888;2022-08-25T01:04:32;25.10;85.00
5246;DHT22;54412;51.206;6.888;2022-08-25T01:07:00;25.00;85.30
5246;DHT22;54412;51.206;6.888;2022-08-25T01:09:29;25.00;85.40
5246;DHT22;54412;51.206;6.888;2022-08-25T01:11:57;25.00;85.60
5246;DHT22;54412;51.206;6.888;2022-08-25T01:14:25;25.00;85.70
5246;DHT22;54412;51.206;6.888;2022-08-25T01:16:52;25.00;85.90
5246;DHT22;54412;51.206;6.888;2022-08-25T01:19:20;24.90;86.40
5246;DHT22;54412;51.206;6.888;2022-08-25T01:21:49;24.90;86.40
5246;DHT22;54412;51.206;6.888;2022-08-25T01:24:28;24.80;86.80
5246;DHT22;54412;51.206;6.888;2022-08-25T01:26:56;24.80;86.80
5246;DHT22;54412;51.206;6.888;2022-08-25T01:29:22;24.80;87.10
5246;DHT22;54412;51.206;6.888;2022-08-25T01:32:02;24.70;87.10
5246;DHT22;54412;51.206;6.888;2022-08-25T01:34:36;24.70;87.20
5246;DHT22;54412;51.206;6.888;2022-08-25T01:37:05;24.70;87.20
5246;DHT22;54412;51.206;6.888;2022-08-25T01:39:34;24.60;87.70
5246;DHT22;54412;51.206;6.888;2022-08-25T01:44:41;24.50;88.00
5246;DHT22;54412;51.206;6.888;2022-08-25T01:47:09;24.50;88.60
5246;DHT22;54412;51.206;6.888;2022-08-25T01:49:36;24.30;88.50
5246;DHT22;54412;51.206;6.888;2022-08-25T01:54:45;24.40;88.90
5246;DHT22;54412;51.206;6.888;2022-08-25T01:57:11;24.30;89.30
5246;DHT22;54412;51.206;6.888;2022-08-25T01:59:37;24.20;89.30
5246;DHT22;54412;51.206;6.888;2022-08-25T02:02:04;24.20;89.70
5246;DHT22;54412;51.206;6.888;2022-08-25T02:04:30;24.30;89.40
5246;DHT22;54412;51.206;6.888;2022-08-25T02:06:58;24.30;89.40
5246;DHT22;54412;51.206;6.888;2022-08-25T02:09:25;24.20;89.40
5246;DHT22;54412;51.206;6.888;2022-08-25T02:11:51;24.20;89.40
5246;DHT22;54412;51.206;6.888;2022-08-25T02:14:17;24.20;89.70
5246;DHT22;54412;51.206;6.888;2022-08-25T02:16:47;24.20;89.90
5246;DHT22;54412;51.206;6.888;2022-08-25T02:19:16;24.30;90.00
5246;DHT22;54412;51.206;6.888;2022-08-25T02:21:43;24.20;90.00
5246;DHT22;54412;51.206;6.888;2022-08-25T02:24:09;24.20;90.00
5246;DHT22;54412;51.206;6.888;2022-08-25T02:26:36;24.10;90.10
5246;DHT22;54412;51.206;6.888;2022-08-25T02:29:04;24.10;90.20
5246;DHT22;54412;51.206;6.888;2022-08-25T02:31:32;24.10;90.30
5246;DHT22;54412;51.206;6.888;2022-08-25T02:33:59;24.10;90.50
5246;DHT22;54412;51.206;6.888;2022-08-25T02:36:26;24.00;90.50
5246;DHT22;54412;51.206;6.888;2022-08-25T02:38:52;24.00;90.50
5246;DHT22;54412;51.206;6.888;2022-08-25T02:41:21;24.10;90.60
5246;DHT22;54412;51.206;6.888;2022-08-25T02:43:49;23.90;90.60
5246;DHT22;54412;51.206;6.888;2022-08-25T02:46:22;24.00;90.70
5246;DHT22;54412;51.206;6.888;2022-08-25T02:48:50;24.00;90.70
5246;DHT22;54412;51.206;6.888;2022-08-25T02:51:17;24.00;90.80
5246;DHT22;54412;51.206;6.888;2022-08-25T02:53:44;24.00;90.80
5246;DHT22;54412;51.206;6.888;2022-08-25T02:56:12;24.00;90.80
5246;DHT22;54412;51.206;6.888;2022-08-25T02:58:40;24.00;90.80
5246;DHT22;54412;51.206;6.888;2022-08-25T03:01:07;24.00;90.90
5246;DHT22;54412;51.206;6.888;2022-08-25T03:03:37;23.90;91.00
5246;DHT22;54412;51.206;6.888;2022-08-25T03:06:06;23.90;91.10
5246;DHT22;54412;51.206;6.888;2022-08-25T03:08:34;23.80;91.10
5246;DHT22;54412;51.206;6.888;2022-08-25T03:11:01;23.70;91.30
5246;DHT22;54412;51.206;6.888;2022-08-25T03:13:27;23.70;91.40
5246;DHT22;54412;51.206;6.888;2022-08-25T03:15:53;23.60;91.30
5246;DHT22;54412;51.206;6.888;2022-08-25T03:18:18;23.60;91.30
5246;DHT22;54412;51.206;6.888;2022-08-25T03:20:44;23.60;91.10
5246;DHT22;54412;51.206;6.888;2022-08-25T03:23:10;23.70;91.00
5246;DHT22;54412;51.206;6.888;2022-08-25T03:25:40;23.70;91.10
5246;DHT22;54412;51.206;6.888;2022-08-25T03:28:25;23.70;90.90
5246;DHT22;54412;51.206;6.888;2022-08-25T03:30:51;23.60;90.90
5246;DHT22;54412;51.206;6.888;2022-08-25T03:33:18;23.70;91.10
5246;DHT22;54412;51.206;6.888;2022-08-25T03:35:44;23.60;91.30
5246;DHT22;54412;51.206;6.888;2022-08-25T03:38:10;23.60;91.40
5246;DHT22;54412;51.206;6.888;2022-08-25T03:40:37;23.60;91.40
5246;DHT22;54412;51.206;6.888;2022-08-25T03:43:03;23.60;91.40
5246;DHT22;54412;51.206;6.888;2022-08-25T03:45:28;23.50;91.40
5246;DHT22;54412;51.206;6.888;2022-08-25T03:47:55;23.40;91.50
5246;DHT22;54412;51.206;6.888;2022-08-25T03:50:22;23.40;91.60
5246;DHT22;54412;51.206;6.888;2022-08-25T03:52:53;23.50;91.50
5246;DHT22;54412;51.206;6.888;2022-08-25T03:55:22;23.50;91.50
5246;DHT22;54412;51.206;6.888;2022-08-25T03:57:50;23.60;91.50
5246;DHT22;54412;51.206;6.888;2022-08-25T04:00:18;23.50;91.60
5246;DHT22;54412;51.206;6.888;2022-08-25T04:02:45;23.50;91.60
5246;DHT22;54412;51.206;6.888;2022-08-25T04:05:11;23.50;91.80
5246;DHT22;54412;51.206;6.888;2022-08-25T04:07:38;23.40;92.10
5246;DHT22;54412;51.206;6.888;2022-08-25T04:10:08;23.30;92.10
5246;DHT22;54412;51.206;6.888;2022-08-25T04:12:35;23.40;92.20
5246;DHT22;54412;51.206;6.888;2022-08-25T04:15:04;23.30;92.20
5246;DHT22;54412;51.206;6.888;2022-08-25T04:17:30;23.30;92.20
5246;DHT22;54412;51.206;6.888;2022-08-25T04:19:56;23.30;92.20
5246;DHT22;54412;51.206;6.888;2022-08-25T04:22:22;23.30;92.30
5246;DHT22;54412;51.206;6.888;2022-08-25T04:24:48;23.20;92.40
5246;DHT22;54412;51.206;6.888;2022-08-25T04:27:14;23.20;92.60
5246;DHT22;54412;51.206;6.888;2022-08-25T04:29:40;23.30;92.60
5246;DHT22;54412;51.206;6.888;2022-08-25T04:32:06;23.20;92.70
5246;DHT22;54412;51.206;6.888;2022-08-25T04:34:32;23.20;92.80
5246;DHT22;54412;51.206;6.888;2022-08-25T04:37:00;23.00;93.00
5246;DHT22;54412;51.206;6.888;2022-08-25T04:39:28;23.10;93.10
5246;DHT22;54412;51.206;6.888;2022-08-25T04:41:54;23.10;93.10
5246;DHT22;54412;51.206;6.888;2022-08-25T04:44:20;23.10;93.20
5246;DHT22;54412;51.206;6.888;2022-08-25T04:46:46;23.20;93.20
5246;DHT22;54412;51.206;6.888;2022-08-25T04:49:11;23.20;93.40
5246;DHT22;54412;51.206;6.888;2022-08-25T04:51:39;23.20;93.50
5246;DHT22;54412;51.206;6.888;2022-08-25T04:54:11;23.20;93.60
5246;DHT22;54412;51.206;6.888;2022-08-25T04:56:41;23.20;93.70
5246;DHT22;54412;51.206;6.888;2022-08-25T04:59:10;23.10;93.90
5246;DHT22;54412;51.206;6.888;2022-08-25T05:01:39;23.10;94.10
5246;DHT22;54412;51.206;6.888;2022-08-25T05:04:09;23.10;94.20
5246;DHT22;54412;51.206;6.888;2022-08-25T05:06:36;23.20;94.20
5246;DHT22;54412;51.206;6.888;2022-08-25T05:09:03;23.20;94.30
5246;DHT22;54412;51.206;6.888;2022-08-25T05:11:29;23.10;94.50
5246;DHT22;54412;51.206;6.888;2022-08-25T05:13:57;23.10;94.60
5246;DHT22;54412;51.206;6.888;2022-08-25T05:16:25;23.20;94.90
5246;DHT22;54412;51.206;6.888;2022-08-25T05:18:52;23.20;95.00
5246;DHT22;54412;51.206;6.888;2022-08-25T05:21:22;23.20;95.20
5246;DHT22;54412;51.206;6.888;2022-08-25T05:23:49;23.20;95.30
5246;DHT22;54412;51.206;6.888;2022-08-25T05:26:19;23.20;95.40
5246;DHT22;54412;51.206;6.888;2022-08-25T05:28:46;23.20;95.50
5246;DHT22;54412;51.206;6.888;2022-08-25T05:31:14;23.20;95.70
5246;DHT22;54412;51.206;6.888;2022-08-25T05:33:40;23.30;95.80
5246;DHT22;54412;51.206;6.888;2022-08-25T05:36:09;23.30;96.00
5246;DHT22;54412;51.206;6.888;2022-08-25T05:38:36;23.20;96.20
5246;DHT22;54412;51.206;6.888;2022-08-25T05:41:07;23.30;96.20
5246;DHT22;54412;51.206;6.888;2022-08-25T05:43:39;23.40;96.00
5246;DHT22;54412;51.206;6.888;2022-08-25T05:46:06;23.30;96.10
5246;DHT22;54412;51.206;6.888;2022-08-25T05:48:33;23.30;96.50
5246;DHT22;54412;51.206;6.888;2022-08-25T05:51:01;23.40;96.50
5246;DHT22;54412;51.206;6.888;2022-08-25T05:53:28;23.50;96.60
5246;DHT22;54412;51.206;6.888;2022-08-25T05:55:56;23.50;96.00
5246;DHT22;54412;51.206;6.888;2022-08-25T05:58:24;23.60;95.80
5246;DHT22;54412;51.206;6.888;2022-08-25T06:00:53;23.70;95.50
5246;DHT22;54412;51.206;6.888;2022-08-25T06:03:19;23.80;95.60
5246;DHT22;54412;51.206;6.888;2022-08-25T06:05:45;23.80;95.90
5246;DHT22;54412;51.206;6.888;2022-08-25T06:08:11;23.90;95.80
5246;DHT22;54412;51.206;6.888;2022-08-25T06:10:37;23.90;95.30
5246;DHT22;54412;51.206;6.888;2022-08-25T06:13:03;24.00;95.40
5246;DHT22;54412;51.206;6.888;2022-08-25T06:15:30;24.10;95.30
5246;DHT22;54412;51.206;6.888;2022-08-25T06:17:58;24.10;95.00
5246;DHT22;54412;51.206;6.888;2022-08-25T06:20:27;24.20;95.10
5246;DHT22;54412;51.206;6.888;2022-08-25T06:22:55;24.40;95.30
5246;DHT22;54412;51.206;6.888;2022-08-25T06:25:23;24.30;94.80
5246;DHT22;54412;51.206;6.888;2022-08-25T06:27:50;24.40;95.10
5246;DHT22;54412;51.206;6.888;2022-08-25T06:30:19;24.50;94.70
5246;DHT22;54412;51.206;6.888;2022-08-25T06:32:46;24.60;94.40
5246;DHT22;54412;51.206;6.888;2022-08-25T06:35:16;24.60;94.40
5246;DHT22;54412;51.206;6.888;2022-08-25T06:37:43;24.70;94.50
5246;DHT22;54412;51.206;6.888;2022-08-25T06:40:10;24.70;94.30
5246;DHT22;54412;51.206;6.888;2022-08-25T06:42:37;24.80;94.30
5246;DHT22;54412;51.206;6.888;2022-08-25T06:45:04;24.90;94.20
5246;DHT22;54412;51.206;6.888;2022-08-25T06:47:30;24.90;94.10
5246;DHT22;54412;51.206;6.888;2022-08-25T06:49:56;24.90;94.10
5246;DHT22;54412;51.206;6.888;2022-08-25T06:52:22;24.90;93.90
5246;DHT22;54412;51.206;6.888;2022-08-25T06:54:48;25.10;93.90
5246;DHT22;54412;51.206;6.888;2022-08-25T06:57:14;25.10;93.70
5246;DHT22;54412;51.206;6.888;2022-08-25T06:59:40;25.10;93.80
5246;DHT22;54412;51.206;6.888;2022-08-25T07:02:07;25.10;93.70
5246;DHT22;54412;51.206;6.888;2022-08-25T07:04:33;25.20;93.50
5246;DHT22;54412;51.206;6.888;2022-08-25T07:07:00;25.20;93.80
5246;DHT22;54412;51.206;6.888;2022-08-25T07:09:26;25.30;93.30
5246;DHT22;54412;51.206;6.888;2022-08-25T07:11:52;25.50;93.00
5246;DHT22;54412;51.206;6.888;2022-08-25T07:14:18;25.50;93.00
5246;DHT22;54412;51.206;6.888;2022-08-25T07:16:44;25.60;92.90
5246;DHT22;54412;51.206;6.888;2022-08-25T07:19:11;25.60;92.70
5246;DHT22;54412;51.206;6.888;2022-08-25T07:21:38;25.60;92.90
5246;DHT22;54412;51.206;6.888;2022-08-25T07:24:08;25.70;92.80
5246;DHT22;54412;51.206;6.888;2022-08-25T07:26:37;25.80;92.60
5246;DHT22;54412;51.206;6.888;2022-08-25T07:29:11;25.80;92.50
5246;DHT22;54412;51.206;6.888;2022-08-25T07:31:39;25.90;92.40
5246;DHT22;54412;51.206;6.888;2022-08-25T07:34:06;26.00;92.40
5246;DHT22;54412;51.206;6.888;2022-08-25T07:36:52;26.00;92.10
5246;DHT22;54412;51.206;6.888;2022-08-25T07:39:19;26.00;92.10
5246;DHT22;54412;51.206;6.888;2022-08-25T07:41:45;26.20;92.20
5246;DHT22;54412;51.206;6.888;2022-08-25T07:44:11;26.20;92.00
5246;DHT22;54412;51.206;6.888;2022-08-25T07:46:38;26.20;91.90
5246;DHT22;54412;51.206;6.888;2022-08-25T07:49:04;26.20;91.90
5246;DHT22;54412;51.206;6.888;2022-08-25T07:51:31;26.20;91.90
5246;DHT22;54412;51.206;6.888;2022-08-25T07:53:57;26.30;91.90
5246;DHT22;54412;51.206;6.888;2022-08-25T07:56:22;26.50;92.00
5246;DHT22;54412;51.206;6.888;2022-08-25T07:58:49;26.70;91.90
5246;DHT22;54412;51.206;6.888;2022-08-25T08:01:18;26.70;91.70
5246;DHT22;54412;51.206;6.888;2022-08-25T08:03:48;26.60;91.60
5246;DHT22;54412;51.206;6.888;2022-08-25T08:06:16;26.60;91.50
5246;DHT22;54412;51.206;6.888;2022-08-25T08:08:45;26.80;91.60
5246;DHT22;54412;51.206;6.888;2022-08-25T08:11:26;26.90;91.50
5246;DHT22;54412;51.206;6.888;2022-08-25T08:13:55;27.00;91.30
5246;DHT22;54412;51.206;6.888;2022-08-25T08:16:24;27.00;91.00
5246;DHT22;54412;51.206;6.888;2022-08-25T08:18:52;27.10;91.10
5246;DHT22;54412;51.206;6.888;2022-08-25T08:21:24;27.10;90.90
5246;DHT22;54412;51.206;6.888;2022-08-25T08:23:52;27.20;91.00
5246;DHT22;54412;51.206;6.888;2022-08-25T08:26:19;27.40;90.60
5246;DHT22;54412;51.206;6.888;2022-08-25T08:28:46;27.50;90.70
5246;DHT22;54412;51.206;6.888;2022-08-25T08:31:12;27.50;90.70
5246;DHT22;54412;51.206;6.888;2022-08-25T08:33:38;27.70;90.30
5246;DHT22;54412;51.206;6.888;2022-08-25T08:36:09;27.80;90.20
5246;DHT22;54412;51.206;6.888;2022-08-25T08:38:39;27.90;89.80
5246;DHT22;54412;51.206;6.888;2022-08-25T08:47:34;28.20;89.70
5246;DHT22;54412;51.206;6.888;2022-08-25T08:50:23;28.30;89.30
5246;DHT22;54412;51.206;6.888;2022-08-25T08:56:18;28.60;87.70
5246;DHT22;54412;51.206;6.888;2022-08-25T08:58:50;28.70;88.70
5246;DHT22;54412;51.206;6.888;2022-08-25T09:01:39;28.70;86.90
5246;DHT22;54412;51.206;6.888;2022-08-25T09:04:18;28.80;87.50
5246;DHT22;54412;51.206;6.888;2022-08-25T09:06:51;28.90;86.30
5246;DHT22;54412;51.206;6.888;2022-08-25T09:12:23;29.00;87.30
5246;DHT22;54412;51.206;6.888;2022-08-25T09:15:17;29.30;88.10
5246;DHT22;54412;51.206;6.888;2022-08-25T09:18:09;29.30;86.10
5246;DHT22;54412;51.206;6.888;2022-08-25T09:26:22;29.30;87.00
5246;DHT22;54412;51.206;6.888;2022-08-25T09:29:20;29.20;85.80
5246;DHT22;54412;51.206;6.888;2022-08-25T09:31:49;29.40;85.80
5246;DHT22;54412;51.206;6.888;2022-08-25T09:34:21;29.30;85.40
5246;DHT22;54412;51.206;6.888;2022-08-25T09:36:49;29.30;85.90
5246;DHT22;54412;51.206;6.888;2022-08-25T09:39:17;29.30;85.00
5246;DHT22;54412;51.206;6.888;2022-08-25T09:41:54;29.40;84.60
5246;DHT22;54412;51.206;6.888;2022-08-25T09:44:43;29.40;83.20
5246;DHT22;54412;51.206;6.888;2022-08-25T09:47:22;29.50;84.80
5246;DHT22;54412;51.206;6.888;2022-08-25T09:49:58;29.50;82.60
5246;DHT22;54412;51.206;6.888;2022-08-25T09:52:39;29.60;83.00
5246;DHT22;54412;51.206;6.888;2022-08-25T09:57:47;29.90;82.30
5246;DHT22;54412;51.206;6.888;2022-08-25T10:00:30;30.10;82.70
5246;DHT22;54412;51.206;6.888;2022-08-25T10:05:49;30.50;81.20
5246;DHT22;54412;51.206;6.888;2022-08-25T10:08:38;30.40;81.20
5246;DHT22;54412;51.206;6.888;2022-08-25T10:11:48;30.30;81.80
5246;DHT22;54412;51.206;6.888;2022-08-25T10:16:45;30.70;80.10
5246;DHT22;54412;51.206;6.888;2022-08-25T10:19:28;30.80;79.90
5246;DHT22;54412;51.206;6.888;2022-08-25T10:22:24;30.80;78.80
5246;DHT22;54412;51.206;6.888;2022-08-25T10:24:59;30.60;78.20
5246;DHT22;54412;51.206;6.888;2022-08-25T10:27:53;30.50;77.80
5246;DHT22;54412;51.206;6.888;2022-08-25T10:39:37;30.70;78.70
5246;DHT22;54412;51.206;6.888;2022-08-25T10:47:56;31.20;76.70
5246;DHT22;54412;51.206;6.888;2022-08-25T10:50:46;31.40;76.60
5246;DHT22;54412;51.206;6.888;2022-08-25T10:56:11;31.50;73.60
5246;DHT22;54412;51.206;6.888;2022-08-25T11:04:52;31.30;72.60
5246;DHT22;54412;51.206;6.888;2022-08-25T11:07:34;31.30;74.00
5246;DHT22;54412;51.206;6.888;2022-08-25T11:10:19;31.50;72.90
5246;DHT22;54412;51.206;6.888;2022-08-25T11:12:59;31.70;71.50
5246;DHT22;54412;51.206;6.888;2022-08-25T11:15:38;31.90;71.50
5246;DHT22;54412;51.206;6.888;2022-08-25T11:18:20;32.00;70.50
5246;DHT22;54412;51.206;6.888;2022-08-25T11:21:00;32.00;68.60
5246;DHT22;54412;51.206;6.888;2022-08-25T11:23:39;31.60;67.30
5246;DHT22;54412;51.206;6.888;2022-08-25T11:26:12;31.70;69.00
5246;DHT22;54412;51.206;6.888;2022-08-25T11:28:56;31.90;69.30
5246;DHT22;54412;51.206;6.888;2022-08-25T11:31:27;31.90;70.30
5246;DHT22;54412;51.206;6.888;2022-08-25T11:33:55;32.20;70.80
5246;DHT22;54412;51.206;6.888;2022-08-25T11:36:34;32.40;70.20
5246;DHT22;54412;51.206;6.888;2022-08-25T11:39:24;32.70;70.00
5246;DHT22;54412;51.206;6.888;2022-08-25T11:42:26;32.80;70.00
5246;DHT22;54412;51.206;6.888;2022-08-25T11:51:35;32.90;67.70
5246;DHT22;54412;51.206;6.888;2022-08-25T11:56:41;32.90;68.20
5246;DHT22;54412;51.206;6.888;2022-08-25T12:02:52;33.20;66.00
5246;DHT22;54412;51.206;6.888;2022-08-25T12:10:58;32.50;62.20
5246;DHT22;54412;51.206;6.888;2022-08-25T12:13:46;32.90;62.40
5246;DHT22;54412;51.206;6.888;2022-08-25T12:30:51;32.60;63.20
5246;DHT22;54412;51.206;6.888;2022-08-25T12:34:07;32.70;63.60
5246;DHT22;54412;51.206;6.888;2022-08-25T12:36:35;32.90;63.70
5246;DHT22;54412;51.206;6.888;2022-08-25T12:39:21;33.40;62.50
5246;DHT22;54412;51.206;6.888;2022-08-25T12:42:00;33.60;62.70
5246;DHT22;54412;51.206;6.888;2022-08-25T12:44:36;33.70;61.90
5246;DHT22;54412;51.206;6.888;2022-08-25T12:47:25;33.40;60.60
5246;DHT22;54412;51.206;6.888;2022-08-25T12:56:41;33.30;61.50
5246;DHT22;54412;51.206;6.888;2022-08-25T13:11:14;33.10;60.60
5246;DHT22;54412;51.206;6.888;2022-08-25T13:13:50;33.00;60.60
5246;DHT22;54412;51.206;6.888;2022-08-25T13:16:24;33.10;60.90
5246;DHT22;54412;51.206;6.888;2022-08-25T13:18:53;33.60;61.60
5246;DHT22;54412;51.206;6.888;2022-08-25T13:23:59;34.00;61.70
5246;DHT22;54412;51.206;6.888;2022-08-25T13:26:29;33.90;60.80
5246;DHT22;54412;51.206;6.888;2022-08-25T13:28:58;33.90;59.90
5246;DHT22;54412;51.206;6.888;2022-08-25T13:32:02;33.90;59.20
5246;DHT22;54412;51.206;6.888;2022-08-25T13:34:36;33.70;59.40
5246;DHT22;54412;51.206;6.888;2022-08-25T13:37:18;33.50;59.80
5246;DHT22;54412;51.206;6.888;2022-08-25T13:42:48;33.90;61.70
5246;DHT22;54412;51.206;6.888;2022-08-25T13:45:25;34.00;60.00
5246;DHT22;54412;51.206;6.888;2022-08-25T13:47:53;34.30;59.70
5246;DHT22;54412;51.206;6.888;2022-08-25T13:53:03;34.00;59.30
5246;DHT22;54412;51.206;6.888;2022-08-25T13:55:48;34.00;59.60
5246;DHT22;54412;51.206;6.888;2022-08-25T13:58:26;34.00;59.80
5246;DHT22;54412;51.206;6.888;2022-08-25T14:01:19;33.90;59.10
5246;DHT22;54412;51.206;6.888;2022-08-25T14:03:50;33.60;58.50
5246;DHT22;54412;51.206;6.888;2022-08-25T14:06:21;33.50;60.20
5246;DHT22;54412;51.206;6.888;2022-08-25T14:11:29;33.10;58.90
5246;DHT22;54412;51.206;6.888;2022-08-25T14:14:08;33.20;59.40
5246;DHT22;54412;51.206;6.888;2022-08-25T14:17:08;33.10;58.70
5246;DHT22;54412;51.206;6.888;2022-08-25T14:19:44;33.10;59.40
5246;DHT22;54412;51.206;6.888;2022-08-25T14:22:11;33.30;59.50
5246;DHT22;54412;51.206;6.888;2022-08-25T14:24:39;33.40;58.30
5246;DHT22;54412;51.206;6.888;2022-08-25T14:27:04;33.40;57.40
5246;DHT22;54412;51.206;6.888;2022-08-25T14:29:30;33.00;58.30
5246;DHT22;54412;51.206;6.888;2022-08-25T14:31:57;32.90;58.60
5246;DHT22;54412;51.206;6.888;2022-08-25T14:34:29;32.90;60.20
5246;DHT22;54412;51.206;6.888;2022-08-25T14:36:58;33.20;59.10
5246;DHT22;54412;51.206;6.888;2022-08-25T14:39:25;33.10;58.60
5246;DHT22;54412;51.206;6.888;2022-08-25T14:41:52;33.00;58.80
5246;DHT22;54412;51.206;6.888;2022-08-25T14:44:19;32.70;58.70
5246;DHT22;54412;51.206;6.888;2022-08-25T14:46:53;32.80;59.20
5246;DHT22;54412;51.206;6.888;2022-08-25T14:49:24;32.70;59.00
5246;DHT22;54412;51.206;6.888;2022-08-25T14:52:00;32.80;58.60
5246;DHT22;54412;51.206;6.888;2022-08-25T14:54:31;32.80;59.30
5246;DHT22;54412;51.206;6.888;2022-08-25T14:56:57;32.80;58.90
5246;DHT22;54412;51.206;6.888;2022-08-25T14:59:23;32.80;58.90
5246;DHT22;54412;51.206;6.888;2022-08-25T15:01:48;32.80;59.30
5246;DHT22;54412;51.206;6.888;2022-08-25T15:04:19;33.00;59.70
5246;DHT22;54412;51.206;6.888;2022-08-25T15:06:50;33.10;58.30
5246;DHT22;54412;51.206;6.888;2022-08-25T15:09:20;33.20;58.80
5246;DHT22;54412;51.206;6.888;2022-08-25T15:11:51;33.20;59.90
5246;DHT22;54412;51.206;6.888;2022-08-25T15:14:20;33.10;57.30
5246;DHT22;54412;51.206;6.888;2022-08-25T15:16:50;32.80;57.60
5246;DHT22;54412;51.206;6.888;2022-08-25T15:19:21;32.40;57.50
5246;DHT22;54412;51.206;6.888;2022-08-25T15:21:51;32.20;57.80
5246;DHT22;54412;51.206;6.888;2022-08-25T15:24:19;32.00;57.70
5246;DHT22;54412;51.206;6.888;2022-08-25T15:26:55;31.90;57.50
5246;DHT22;54412;51.206;6.888;2022-08-25T15:29:25;31.80;57.80
5246;DHT22;54412;51.206;6.888;2022-08-25T15:31:53;31.80;58.10
5246;DHT22;54412;51.206;6.888;2022-08-25T15:34:20;31.70;58.00
5246;DHT22;54412;51.206;6.888;2022-08-25T15:36:46;31.80;58.10
5246;DHT22;54412;51.206;6.888;2022-08-25T15:39:14;31.90;59.10
5246;DHT22;54412;51.206;6.888;2022-08-25T15:41:40;32.00;59.80
5246;DHT22;54412;51.206;6.888;2022-08-25T15:44:07;32.20;61.30
5246;DHT22;54412;51.206;6.888;2022-08-25T15:46:36;32.30;61.80
5246;DHT22;54412;51.206;6.888;2022-08-25T15:49:04;32.40;60.60
5246;DHT22;54412;51.206;6.888;2022-08-25T15:51:30;32.30;61.10
5246;DHT22;54412;51.206;6.888;2022-08-25T15:53:56;32.40;61.20
5246;DHT22;54412;51.206;6.888;2022-08-25T15:56:22;32.40;62.20
5246;DHT22;54412;51.206;6.888;2022-08-25T15:58:49;32.40;61.70
5246;DHT22;54412;51.206;6.888;2022-08-25T16:01:18;32.40;60.90
5246;DHT22;54412;51.206;6.888;2022-08-25T16:03:46;32.30;60.40
5246;DHT22;54412;51.206;6.888;2022-08-25T16:06:12;32.30;60.60
5246;DHT22;54412;51.206;6.888;2022-08-25T16:08:38;32.30;60.50
5246;DHT22;54412;51.206;6.888;2022-08-25T16:11:05;32.20;61.50
5246;DHT22;54412;51.206;6.888;2022-08-25T16:13:32;32.20;61.00
5246;DHT22;54412;51.206;6.888;2022-08-25T16:15:58;32.30;62.20
5246;DHT22;54412;51.206;6.888;2022-08-25T16:18:24;32.10;61.60
5246;DHT22;54412;51.206;6.888;2022-08-25T16:20:51;32.10;60.00
5246;DHT22;54412;51.206;6.888;2022-08-25T16:23:19;32.00;60.60
5246;DHT22;54412;51.206;6.888;2022-08-25T16:25:46;32.00;61.90
5246;DHT22;54412;51.206;6.888;2022-08-25T16:28:14;32.00;62.00
5246;DHT22;54412;51.206;6.888;2022-08-25T16:30:47;32.00;62.30
5246;DHT22;54412;51.206;6.888;2022-08-25T16:33:14;32.00;62.00
5246;DHT22;54412;51.206;6.888;2022-08-25T16:35:42;32.00;61.90
5246;DHT22;54412;51.206;6.888;2022-08-25T16:38:09;32.00;61.30
5246;DHT22;54412;51.206;6.888;2022-08-25T16:40:40;32.00;60.90
5246;DHT22;54412;51.206;6.888;2022-08-25T16:43:07;31.90;61.60
5246;DHT22;54412;51.206;6.888;2022-08-25T16:45:34;31.90;62.90
5246;DHT22;54412;51.206;6.888;2022-08-25T16:48:01;31.90;62.80
5246;DHT22;54412;51.206;6.888;2022-08-25T16:50:29;31.80;62.20
5246;DHT22;54412;51.206;6.888;2022-08-25T16:52:56;31.80;62.80
5246;DHT22;54412;51.206;6.888;2022-08-25T16:55:41;31.80;62.30
5246;DHT22;54412;51.206;6.888;2022-08-25T16:58:08;31.80;63.50
5246;DHT22;54412;51.206;6.888;2022-08-25T17:00:36;31.80;63.50
5246;DHT22;54412;51.206;6.888;2022-08-25T17:03:03;31.70;62.30
5246;DHT22;54412;51.206;6.888;2022-08-25T17:05:31;31.60;62.40
5246;DHT22;54412;51.206;6.888;2022-08-25T17:07:59;31.70;62.80
5246;DHT22;54412;51.206;6.888;2022-08-25T17:10:44;31.70;62.00
5246;DHT22;54412;51.206;6.888;2022-08-25T17:13:10;31.60;62.70
5246;DHT22;54412;51.206;6.888;2022-08-25T17:15:42;31.60;62.10
5246;DHT22;54412;51.206;6.888;2022-08-25T17:18:10;31.60;62.10
5246;DHT22;54412;51.206;6.888;2022-08-25T17:20:37;31.50;61.80
5246;DHT22;54412;51.206;6.888;2022-08-25T17:23:03;31.50;62.80
5246;DHT22;54412;51.206;6.888;2022-08-25T17:25:33;31.50;63.70
5246;DHT22;54412;51.206;6.888;2022-08-25T17:28:00;31.50;64.70
5246;DHT22;54412;51.206;6.888;2022-08-25T17:30:27;31.40;65.00
5246;DHT22;54412;51.206;6.888;2022-08-25T17:32:53;31.40;65.90
5246;DHT22;54412;51.206;6.888;2022-08-25T17:35:18;31.40;66.60
5246;DHT22;54412;51.206;6.888;2022-08-25T17:37:45;31.30;67.10
5246;DHT22;54412;51.206;6.888;2022-08-25T17:40:11;31.30;66.70
5246;DHT22;54412;51.206;6.888;2022-08-25T17:42:37;31.30;67.40
5246;DHT22;54412;51.206;6.888;2022-08-25T17:45:04;31.20;67.20
5246;DHT22;54412;51.206;6.888;2022-08-25T17:47:30;31.20;67.20
5246;DHT22;54412;51.206;6.888;2022-08-25T17:49:56;31.10;67.80
5246;DHT22;54412;51.206;6.888;2022-08-25T17:52:22;31.10;68.90
5246;DHT22;54412;51.206;6.888;2022-08-25T17:54:48;31.10;69.80
5246;DHT22;54412;51.206;6.888;2022-08-25T17:57:16;31.00;70.30
5246;DHT22;54412;51.206;6.888;2022-08-25T17:59:42;31.00;71.70
5246;DHT22;54412;51.206;6.888;2022-08-25T18:02:08;30.90;71.80
5246;DHT22;54412;51.206;6.888;2022-08-25T18:04:35;30.80;72.40
5246;DHT22;54412;51.206;6.888;2022-08-25T18:07:02;30.70;72.80